Strona główna
METAR-TAF:

METAR-TAF

Lotnisko :

Port lotniczy Land’s End

Land's End, Anglia

Szerokość geograficzna: 50-06-10N, Długość geograficzna: 005-40-14W, wysokość: 122 m

Aktualna obserwacja pogody

Raport powstał 25 minut temu, godzina 16:20 UTC
Wiatr 13 kt od północ
Temperatura 16°C
Wilgotność 77%
Ciśnienie 1027 hPa
Widzialność 10 km lub więcej
Mało chmury na wysokości 1400 ft

METAR: EGHC 121620Z 36013KT 9999 FEW014 16/12 Q1027

czas: 17:45 (16:45 UTC)

Prognoza

Raport powstał 2 godziny i 46 minut temu, godzina 13:59 UTC
Prognoza ważna od 12 godzina 15 UTC do 12 godzina 18 UTC
Wiatr 12 kt od północ
Widzialność 10 km lub więcej
Mało chmury na wysokości 2000 ft

TAF: EGHC 121359Z 1215/1218 35012KT 9999 FEW020

Obserwacja i prognoza pogody dla ponad 4000 lotnisk (raport METAR i TAF).

Dostępne stacje oznaczono żółtymi i czerwonymi punktami na mapie.

Najedź kursorem aby zobaczyć nazwę stacji.

Kliknij aby zobaczyć obserwacje i prognozy pogody.

Aby zmienić mapę: kliknij na zielony przycisk z czarnym krzyżykiem, aby powiększyć; na zielony przycisk z myślnikiem, aby pomniejszyć; na zielone strzałki, aby przejść do map sąsiednich.


METAR-TAF: